Kezdőlap
METAR-TAF:

METAR-TAF

Repülőterek :

Phnompen, Kambodzsa

földrajzi szélesség: 11-33N, földrajzi hosszúság: 104-51E, magasság: 10 m

Jelenlegi meteorológiai megfigyelések

A jelentés 13 perccel ezelõtt készült, 18:00 UTC
Déli szél 6 kt
Hőmérséklet 29°C
Páratartalom 79%
Légköri nyomás 1006 hPa
Látótávolság 10 km, vagy több
Kevés felhő 1700 lábon

METAR: VDPP 181800Z 18006KT 9999 FEW017 29/25 Q1006

Idő: 01:13 (18:13 UTC)

Előrejelzés

A jelentés 1 órával és 13 perccel ezelõtt készült, 17:00 UTC
Az előrejelzés 18-én 18 óra UTC és 19-én 12 óra UTC között érvényes
Déli szél 7 kt
Látótávolság 10 km, vagy több
Szórványos felhőzet 1700 lábon

TAF: VDPP 181700Z 1818/1912 19007KT 9999 SCT017

Meteorológiai megfigyelések és előrejelzések több, mint 4000 repülőtéren (METAR és TAF jelentéseket).

A térképen piros és sárga pontok jelzik az elérhető meteorológiai állomásokat.

Mozgassa az egeret a pont fölött, hogy megjelenjen az állomás neve.

Azután kattintson az időjárási megfigyelések és előrejelzések megtekintéséhez.

A térkép megváltoztatása: kattintson a fekete keresztel jelölt zöld gombra ráközelítéshez, a vonallal jelölt zöld gombra távolításhoz, vagy a zöld nyilakra a szomszédos térképek eléréséhez.


METAR-TAF: